sensor_id;sensor_type;location;lat;lon;timestamp;pressure;altitude;pressure_sealevel;temperature;humidity
82858;BME280;72620;47.774;9.620;2024-01-27T00:00:28;97949.53;;;5.39;92.36
82858;BME280;72620;47.774;9.620;2024-01-27T00:02:56;97959.13;;;5.34;92.22
82858;BME280;72620;47.774;9.620;2024-01-27T00:05:23;97962.50;;;5.35;92.30
82858;BME280;72620;47.774;9.620;2024-01-27T00:07:52;97963.91;;;5.40;92.46
82858;BME280;72620;47.774;9.620;2024-01-27T00:10:19;97964.59;;;5.44;91.75
82858;BME280;72620;47.774;9.620;2024-01-27T00:12:46;97963.66;;;5.45;91.38
82858;BME280;72620;47.774;9.620;2024-01-27T00:15:13;97962.91;;;5.43;91.35
82858;BME280;72620;47.774;9.620;2024-01-27T00:17:40;97962.03;;;5.44;91.42
82858;BME280;72620;47.774;9.620;2024-01-27T00:20:08;97962.13;;;5.42;92.04
82858;BME280;72620;47.774;9.620;2024-01-27T00:22:35;97970.00;;;5.38;92.64
82858;BME280;72620;47.774;9.620;2024-01-27T00:25:02;97963.72;;;5.28;92.62
82858;BME280;72620;47.774;9.620;2024-01-27T00:27:29;97970.69;;;5.24;92.55
82858;BME280;72620;47.774;9.620;2024-01-27T00:29:56;97983.63;;;5.20;92.76
82858;BME280;72620;47.774;9.620;2024-01-27T00:32:23;97983.63;;;5.20;92.81
82858;BME280;72620;47.774;9.620;2024-01-27T00:34:50;97985.34;;;5.19;92.70
82858;BME280;72620;47.774;9.620;2024-01-27T00:37:17;97987.31;;;5.14;92.83
82858;BME280;72620;47.774;9.620;2024-01-27T00:39:44;97984.84;;;5.12;93.20
82858;BME280;72620;47.774;9.620;2024-01-27T00:42:12;97981.09;;;5.20;92.46
82858;BME280;72620;47.774;9.620;2024-01-27T00:44:39;97977.81;;;5.18;92.92
82858;BME280;72620;47.774;9.620;2024-01-27T00:47:06;97981.47;;;5.12;93.61
82858;BME280;72620;47.774;9.620;2024-01-27T00:49:33;97981.31;;;5.15;93.24
82858;BME280;72620;47.774;9.620;2024-01-27T00:52:00;97987.25;;;5.16;92.94
82858;BME280;72620;47.774;9.620;2024-01-27T00:54:27;97988.97;;;5.15;92.40
82858;BME280;72620;47.774;9.620;2024-01-27T00:56:54;97990.91;;;5.10;93.76
82858;BME280;72620;47.774;9.620;2024-01-27T00:59:21;97992.47;;;5.12;93.37
82858;BME280;72620;47.774;9.620;2024-01-27T01:01:48;97993.22;;;5.14;92.71
82858;BME280;72620;47.774;9.620;2024-01-27T01:04:16;97994.94;;;5.14;92.57
82858;BME280;72620;47.774;9.620;2024-01-27T01:06:43;97991.03;;;5.07;92.45
82858;BME280;72620;47.774;9.620;2024-01-27T01:09:10;98001.31;;;5.05;92.65
82858;BME280;72620;47.774;9.620;2024-01-27T01:11:37;98003.97;;;5.02;92.00
82858;BME280;72620;47.774;9.620;2024-01-27T01:14:05;98013.19;;;5.05;92.36
82858;BME280;72620;47.774;9.620;2024-01-27T01:16:33;98014.03;;;5.05;92.79
82858;BME280;72620;47.774;9.620;2024-01-27T01:19:00;98014.13;;;5.04;92.35
82858;BME280;72620;47.774;9.620;2024-01-27T01:21:27;98026.09;;;5.02;92.20
82858;BME280;72620;47.774;9.620;2024-01-27T01:23:55;98026.13;;;5.00;92.92
82858;BME280;72620;47.774;9.620;2024-01-27T01:26:22;98034.69;;;4.99;92.03
82858;BME280;72620;47.774;9.620;2024-01-27T01:28:49;98033.16;;;4.95;92.86
82858;BME280;72620;47.774;9.620;2024-01-27T01:31:17;98033.41;;;4.91;92.03
82858;BME280;72620;47.774;9.620;2024-01-27T01:33:44;98031.00;;;4.88;91.80
82858;BME280;72620;47.774;9.620;2024-01-27T01:36:11;98035.47;;;4.83;92.50
82858;BME280;72620;47.774;9.620;2024-01-27T01:38:38;98032.19;;;4.81;92.86
82858;BME280;72620;47.774;9.620;2024-01-27T01:41:06;98019.69;;;4.76;92.79
82858;BME280;72620;47.774;9.620;2024-01-27T01:43:33;98019.03;;;4.73;92.62
82858;BME280;72620;47.774;9.620;2024-01-27T01:46:00;98026.88;;;4.68;92.62
82858;BME280;72620;47.774;9.620;2024-01-27T01:48:27;98023.63;;;4.65;92.73
82858;BME280;72620;47.774;9.620;2024-01-27T01:50:54;98017.13;;;4.59;92.52
82858;BME280;72620;47.774;9.620;2024-01-27T01:53:22;98026.69;;;4.54;92.58
82858;BME280;72620;47.774;9.620;2024-01-27T01:55:50;98015.75;;;4.52;92.95
82858;BME280;72620;47.774;9.620;2024-01-27T01:58:19;98016.81;;;4.48;92.88
82858;BME280;72620;47.774;9.620;2024-01-27T02:00:46;98019.56;;;4.44;93.14
82858;BME280;72620;47.774;9.620;2024-01-27T02:03:13;98015.56;;;4.38;92.87
82858;BME280;72620;47.774;9.620;2024-01-27T02:05:40;98029.94;;;4.39;92.72
82858;BME280;72620;47.774;9.620;2024-01-27T02:08:08;98021.69;;;4.34;92.56
82858;BME280;72620;47.774;9.620;2024-01-27T02:10:35;98025.31;;;4.28;92.66
82858;BME280;72620;47.774;9.620;2024-01-27T02:13:23;98023.91;;;4.23;93.01
82858;BME280;72620;47.774;9.620;2024-01-27T02:15:50;98032.47;;;4.20;93.52
82858;BME280;72620;47.774;9.620;2024-01-27T02:18:18;98032.56;;;4.19;93.14
82858;BME280;72620;47.774;9.620;2024-01-27T02:20:45;98031.81;;;4.17;93.38
82858;BME280;72620;47.774;9.620;2024-01-27T02:23:12;98022.44;;;4.17;93.97
82858;BME280;72620;47.774;9.620;2024-01-27T02:25:39;98032.56;;;4.19;93.72
82858;BME280;72620;47.774;9.620;2024-01-27T02:28:06;98031.03;;;4.15;94.05
82858;BME280;72620;47.774;9.620;2024-01-27T02:30:34;98022.59;;;4.14;94.06
82858;BME280;72620;47.774;9.620;2024-01-27T02:33:01;98026.97;;;4.11;93.53
82858;BME280;72620;47.774;9.620;2024-01-27T02:35:29;98039.75;;;4.09;93.54
82858;BME280;72620;47.774;9.620;2024-01-27T02:37:56;98043.16;;;4.08;93.01
82858;BME280;72620;47.774;9.620;2024-01-27T02:40:23;98048.41;;;4.05;93.95
82858;BME280;72620;47.774;9.620;2024-01-27T02:42:50;98049.50;;;4.00;94.47
82858;BME280;72620;47.774;9.620;2024-01-27T02:45:17;98050.31;;;4.00;94.02
82858;BME280;72620;47.774;9.620;2024-01-27T02:47:45;98051.91;;;4.03;93.93
82858;BME280;72620;47.774;9.620;2024-01-27T02:50:12;98056.84;;;4.06;93.31
82858;BME280;72620;47.774;9.620;2024-01-27T02:52:40;98057.63;;;4.08;92.87
82858;BME280;72620;47.774;9.620;2024-01-27T02:55:07;98056.09;;;4.04;92.85
82858;BME280;72620;47.774;9.620;2024-01-27T02:57:34;98058.69;;;4.02;92.54
82858;BME280;72620;47.774;9.620;2024-01-27T03:00:01;98061.16;;;4.04;92.55
82858;BME280;72620;47.774;9.620;2024-01-27T03:02:29;98069.69;;;4.03;92.77
82858;BME280;72620;47.774;9.620;2024-01-27T03:04:56;98061.31;;;4.01;92.17
82858;BME280;72620;47.774;9.620;2024-01-27T03:07:23;98054.56;;;4.00;92.86
82858;BME280;72620;47.774;9.620;2024-01-27T03:09:51;98062.81;;;4.05;92.61
82858;BME280;72620;47.774;9.620;2024-01-27T03:12:18;98073.81;;;4.05;92.12
82858;BME280;72620;47.774;9.620;2024-01-27T03:14:45;98068.03;;;4.02;91.97
82858;BME280;72620;47.774;9.620;2024-01-27T03:17:13;98066.53;;;3.98;92.23
82858;BME280;72620;47.774;9.620;2024-01-27T03:19:40;98064.19;;;3.93;91.88
82858;BME280;72620;47.774;9.620;2024-01-27T03:22:08;98059.22;;;3.90;91.49
82858;BME280;72620;47.774;9.620;2024-01-27T03:24:35;98067.38;;;3.78;92.51
82858;BME280;72620;47.774;9.620;2024-01-27T03:27:03;98066.75;;;3.73;93.00
82858;BME280;72620;47.774;9.620;2024-01-27T03:29:30;98067.84;;;3.67;92.65
82858;BME280;72620;47.774;9.620;2024-01-27T03:31:57;98090.81;;;3.64;92.53
82858;BME280;72620;47.774;9.620;2024-01-27T03:34:24;98090.19;;;3.59;93.28
82858;BME280;72620;47.774;9.620;2024-01-27T03:36:54;98080.28;;;3.53;92.89
82858;BME280;72620;47.774;9.620;2024-01-27T03:39:21;98082.94;;;3.50;92.95
82858;BME280;72620;47.774;9.620;2024-01-27T03:41:49;98087.38;;;3.45;93.99
82858;BME280;72620;47.774;9.620;2024-01-27T03:44:16;98089.03;;;3.46;93.64
82858;BME280;72620;47.774;9.620;2024-01-27T03:46:43;98088.16;;;3.47;93.10
82858;BME280;72620;47.774;9.620;2024-01-27T03:49:10;98082.13;;;3.50;93.01
82858;BME280;72620;47.774;9.620;2024-01-27T03:51:38;98083.28;;;3.43;92.61
82858;BME280;72620;47.774;9.620;2024-01-27T03:54:05;98081.69;;;3.40;92.97
82858;BME280;72620;47.774;9.620;2024-01-27T03:56:33;98096.00;;;3.41;93.40
82858;BME280;72620;47.774;9.620;2024-01-27T03:59:00;98099.75;;;3.33;93.30
82858;BME280;72620;47.774;9.620;2024-01-27T04:01:27;98102.56;;;3.27;92.44
82858;BME280;72620;47.774;9.620;2024-01-27T04:03:54;98104.50;;;3.20;93.42
82858;BME280;72620;47.774;9.620;2024-01-27T04:06:21;98099.66;;;3.14;93.19
82858;BME280;72620;47.774;9.620;2024-01-27T04:08:49;98105.84;;;3.07;93.29
82858;BME280;72620;47.774;9.620;2024-01-27T04:11:20;98087.69;;;2.96;93.39
82858;BME280;72620;47.774;9.620;2024-01-27T04:13:50;98104.09;;;2.87;93.10
82858;BME280;72620;47.774;9.620;2024-01-27T04:16:17;98111.25;;;2.78;93.99
82858;BME280;72620;47.774;9.620;2024-01-27T04:18:44;98110.59;;;2.73;93.99
82858;BME280;72620;47.774;9.620;2024-01-27T04:21:13;98104.88;;;2.68;93.69
82858;BME280;72620;47.774;9.620;2024-01-27T04:23:41;98104.22;;;2.63;93.68
82858;BME280;72620;47.774;9.620;2024-01-27T04:26:08;98101.91;;;2.57;93.95
82858;BME280;72620;47.774;9.620;2024-01-27T04:28:36;98097.19;;;2.48;93.91
82858;BME280;72620;47.774;9.620;2024-01-27T04:31:04;98114.16;;;2.46;93.36
82858;BME280;72620;47.774;9.620;2024-01-27T04:33:32;98119.50;;;2.38;93.35
82858;BME280;72620;47.774;9.620;2024-01-27T04:36:00;98114.75;;;2.29;93.56
82858;BME280;72620;47.774;9.620;2024-01-27T04:38:27;98110.75;;;2.24;94.29
82858;BME280;72620;47.774;9.620;2024-01-27T04:40:54;98112.56;;;2.20;94.61
82858;BME280;72620;47.774;9.620;2024-01-27T04:43:21;98124.41;;;2.19;94.71
82858;BME280;72620;47.774;9.620;2024-01-27T04:45:48;98123.84;;;2.11;94.86
82858;BME280;72620;47.774;9.620;2024-01-27T04:48:16;98122.91;;;2.14;95.22
82858;BME280;72620;47.774;9.620;2024-01-27T04:50:43;98119.53;;;2.13;94.94
82858;BME280;72620;47.774;9.620;2024-01-27T04:53:11;98121.25;;;2.13;94.15
82858;BME280;72620;47.774;9.620;2024-01-27T04:55:38;98126.69;;;2.02;93.90
82858;BME280;72620;47.774;9.620;2024-01-27T04:58:06;98124.31;;;1.98;93.37
82858;BME280;72620;47.774;9.620;2024-01-27T05:00:34;98129.63;;;1.92;93.23
82858;BME280;72620;47.774;9.620;2024-01-27T05:03:01;98127.25;;;1.87;93.33
82858;BME280;72620;47.774;9.620;2024-01-27T05:05:31;98125.63;;;1.85;93.42
82858;BME280;72620;47.774;9.620;2024-01-27T05:08:02;98125.78;;;1.80;92.95
82858;BME280;72620;47.774;9.620;2024-01-27T05:10:29;98125.13;;;1.75;93.15
82858;BME280;72620;47.774;9.620;2024-01-27T05:12:57;98122.69;;;1.72;92.54
82858;BME280;72620;47.774;9.620;2024-01-27T05:15:24;98121.09;;;1.70;92.91
82858;BME280;72620;47.774;9.620;2024-01-27T05:17:51;98125.63;;;1.60;92.95
82858;BME280;72620;47.774;9.620;2024-01-27T05:20:18;98131.78;;;1.53;92.94
82858;BME280;72620;47.774;9.620;2024-01-27T05:22:46;98125.00;;;1.54;93.37
82858;BME280;72620;47.774;9.620;2024-01-27T05:25:13;98128.31;;;1.56;93.07
82858;BME280;72620;47.774;9.620;2024-01-27T05:27:40;98134.91;;;1.61;93.29
82858;BME280;72620;47.774;9.620;2024-01-27T05:30:08;98129.72;;;1.64;95.56
82858;BME280;72620;47.774;9.620;2024-01-27T05:32:35;98129.00;;;1.61;92.82
82858;BME280;72620;47.774;9.620;2024-01-27T05:35:03;98124.88;;;1.58;92.36
82858;BME280;72620;47.774;9.620;2024-01-27T05:37:31;98127.59;;;1.52;92.42
82858;BME280;72620;47.774;9.620;2024-01-27T05:39:59;98135.34;;;1.48;92.72
82858;BME280;72620;47.774;9.620;2024-01-27T05:42:26;98135.38;;;1.46;92.68
82858;BME280;72620;47.774;9.620;2024-01-27T05:44:53;98132.03;;;1.45;92.33
82858;BME280;72620;47.774;9.620;2024-01-27T05:47:20;98137.97;;;1.44;92.29
82858;BME280;72620;47.774;9.620;2024-01-27T05:49:47;98141.56;;;1.37;92.25
82858;BME280;72620;47.774;9.620;2024-01-27T05:52:14;98140.78;;;1.35;92.47
82858;BME280;72620;47.774;9.620;2024-01-27T05:54:51;98139.31;;;1.28;92.58
82858;BME280;72620;47.774;9.620;2024-01-27T05:57:19;98145.56;;;1.18;92.31
82858;BME280;72620;47.774;9.620;2024-01-27T05:59:47;98131.50;;;1.10;92.42
82858;BME280;72620;47.774;9.620;2024-01-27T06:02:14;98132.56;;;1.03;92.34
82858;BME280;72620;47.774;9.620;2024-01-27T06:04:45;98135.13;;;1.01;92.80
82858;BME280;72620;47.774;9.620;2024-01-27T06:07:12;98146.28;;;0.94;93.72
82858;BME280;72620;47.774;9.620;2024-01-27T06:09:40;98137.91;;;0.94;93.21
82858;BME280;72620;47.774;9.620;2024-01-27T06:12:07;98133.03;;;0.88;93.27
82858;BME280;72620;47.774;9.620;2024-01-27T06:14:34;98139.75;;;0.89;93.28
82858;BME280;72620;47.774;9.620;2024-01-27T06:17:04;98148.81;;;0.94;96.56
82858;BME280;72620;47.774;9.620;2024-01-27T06:19:32;98149.56;;;0.98;93.06
82858;BME280;72620;47.774;9.620;2024-01-27T06:21:59;98145.38;;;0.97;92.86
82858;BME280;72620;47.774;9.620;2024-01-27T06:24:30;98147.91;;;0.97;93.03
82858;BME280;72620;47.774;9.620;2024-01-27T06:26:58;98140.44;;;0.94;92.76
82858;BME280;72620;47.774;9.620;2024-01-27T06:29:25;98150.72;;;0.88;92.76
82858;BME280;72620;47.774;9.620;2024-01-27T06:31:53;98149.03;;;0.88;92.71
82858;BME280;72620;47.774;9.620;2024-01-27T06:34:20;98155.81;;;0.86;92.75
82858;BME280;72620;47.774;9.620;2024-01-27T06:36:48;98155.97;;;0.82;92.67
82858;BME280;72620;47.774;9.620;2024-01-27T06:39:15;98157.00;;;0.74;92.83
82858;BME280;72620;47.774;9.620;2024-01-27T06:41:42;98152.84;;;0.73;92.69
82858;BME280;72620;47.774;9.620;2024-01-27T06:44:09;98164.59;;;0.74;92.61
82858;BME280;72620;47.774;9.620;2024-01-27T06:46:36;98162.03;;;0.76;93.05
82858;BME280;72620;47.774;9.620;2024-01-27T06:49:03;98161.28;;;0.72;92.53
82858;BME280;72620;47.774;9.620;2024-01-27T06:51:30;98167.25;;;0.70;92.54
82858;BME280;72620;47.774;9.620;2024-01-27T06:53:58;98179.03;;;0.71;92.36
82858;BME280;72620;47.774;9.620;2024-01-27T06:56:25;98179.22;;;0.65;92.73
82858;BME280;72620;47.774;9.620;2024-01-27T06:58:52;98166.59;;;0.63;93.10
82858;BME280;72620;47.774;9.620;2024-01-27T07:01:19;98181.63;;;0.68;93.92
82858;BME280;72620;47.774;9.620;2024-01-27T07:03:46;98186.56;;;0.72;93.08
82858;BME280;72620;47.774;9.620;2024-01-27T07:06:13;98185.69;;;0.73;92.43
82858;BME280;72620;47.774;9.620;2024-01-27T07:08:41;98168.16;;;0.67;92.41
82858;BME280;72620;47.774;9.620;2024-01-27T07:11:08;98173.22;;;0.67;92.89
82858;BME280;72620;47.774;9.620;2024-01-27T07:13:35;98179.09;;;0.68;92.73
82858;BME280;72620;47.774;9.620;2024-01-27T07:16:02;98179.88;;;0.71;92.51
82858;BME280;72620;47.774;9.620;2024-01-27T07:18:30;98180.66;;;0.73;92.74
82858;BME280;72620;47.774;9.620;2024-01-27T07:21:01;98182.28;;;0.74;92.67
82858;BME280;72620;47.774;9.620;2024-01-27T07:23:53;98181.31;;;0.79;92.56
82858;BME280;72620;47.774;9.620;2024-01-27T07:26:34;98182.16;;;0.79;92.30
82858;BME280;72620;47.774;9.620;2024-01-27T07:29:01;98184.59;;;0.82;92.49
82858;BME280;72620;47.774;9.620;2024-01-27T07:31:28;98189.59;;;0.84;92.44
82858;BME280;72620;47.774;9.620;2024-01-27T07:33:55;98197.03;;;0.90;92.33
82858;BME280;72620;47.774;9.620;2024-01-27T07:36:23;98187.03;;;0.85;92.19
82858;BME280;72620;47.774;9.620;2024-01-27T07:38:50;98192.13;;;0.84;92.17
82858;BME280;72620;47.774;9.620;2024-01-27T07:41:18;98195.44;;;0.86;92.33
82858;BME280;72620;47.774;9.620;2024-01-27T07:43:45;98195.34;;;0.89;92.43
82858;BME280;72620;47.774;9.620;2024-01-27T07:46:12;98197.75;;;0.93;92.53
82858;BME280;72620;47.774;9.620;2024-01-27T07:48:39;98200.19;;;0.96;92.57
82858;BME280;72620;47.774;9.620;2024-01-27T07:51:06;98190.09;;;0.96;92.38
82858;BME280;72620;47.774;9.620;2024-01-27T07:53:34;98189.88;;;1.02;94.11
82858;BME280;72620;47.774;9.620;2024-01-27T07:56:01;98187.91;;;1.12;92.43
82858;BME280;72620;47.774;9.620;2024-01-27T07:58:36;98187.72;;;1.18;92.06
82858;BME280;72620;47.774;9.620;2024-01-27T08:01:03;98187.72;;;1.18;91.69
82858;BME280;72620;47.774;9.620;2024-01-27T08:03:31;98184.28;;;1.20;91.74
82858;BME280;72620;47.774;9.620;2024-01-27T08:05:58;98184.06;;;1.26;91.45
82858;BME280;72620;47.774;9.620;2024-01-27T08:08:25;98189.69;;;1.36;91.32
82858;BME280;72620;47.774;9.620;2024-01-27T08:10:53;98182.47;;;1.76;90.11
82858;BME280;72620;47.774;9.620;2024-01-27T08:13:20;98190.72;;;2.31;87.38
82858;BME280;72620;47.774;9.620;2024-01-27T08:15:47;98189.41;;;2.67;85.74
82858;BME280;72620;47.774;9.620;2024-01-27T08:18:14;98189.44;;;2.88;84.83
82858;BME280;72620;47.774;9.620;2024-01-27T08:20:41;98197.56;;;2.98;84.40
82858;BME280;72620;47.774;9.620;2024-01-27T08:23:08;98189.19;;;3.18;83.42
82858;BME280;72620;47.774;9.620;2024-01-27T08:25:35;98191.78;;;3.38;82.50
82858;BME280;72620;47.774;9.620;2024-01-27T08:28:04;98190.31;;;3.52;81.72
82858;BME280;72620;47.774;9.620;2024-01-27T08:30:32;98183.25;;;3.60;81.20
82858;BME280;72620;47.774;9.620;2024-01-27T08:32:59;98192.50;;;3.82;80.73
82858;BME280;72620;47.774;9.620;2024-01-27T08:35:26;98187.97;;;4.28;80.28
82858;BME280;72620;47.774;9.620;2024-01-27T08:37:53;98191.16;;;4.91;76.83
82858;BME280;72620;47.774;9.620;2024-01-27T08:40:20;98177.50;;;5.63;74.11
82858;BME280;72620;47.774;9.620;2024-01-27T08:42:47;98182.28;;;6.38;71.44
82858;BME280;72620;47.774;9.620;2024-01-27T08:45:14;98172.00;;;7.19;68.79
82858;BME280;72620;47.774;9.620;2024-01-27T08:47:41;98175.00;;;7.41;67.54
82858;BME280;72620;47.774;9.620;2024-01-27T08:50:09;98180.78;;;7.29;66.95
82858;BME280;72620;47.774;9.620;2024-01-27T08:52:37;98178.91;;;7.32;66.53
82858;BME280;72620;47.774;9.620;2024-01-27T08:55:05;98174.28;;;7.23;67.18
82858;BME280;72620;47.774;9.620;2024-01-27T08:57:32;98188.94;;;6.89;69.13
82858;BME280;72620;47.774;9.620;2024-01-27T09:00:02;98185.97;;;6.65;69.42
82858;BME280;72620;47.774;9.620;2024-01-27T09:02:30;98178.88;;;6.54;70.64
82858;BME280;72620;47.774;9.620;2024-01-27T09:04:57;98170.56;;;6.67;70.75
82858;BME280;72620;47.774;9.620;2024-01-27T09:07:24;98166.66;;;6.92;69.40
82858;BME280;72620;47.774;9.620;2024-01-27T09:09:51;98158.50;;;7.01;69.90
82858;BME280;72620;47.774;9.620;2024-01-27T09:12:19;98154.63;;;7.10;70.59
82858;BME280;72620;47.774;9.620;2024-01-27T09:14:46;98166.63;;;7.23;69.79
82858;BME280;72620;47.774;9.620;2024-01-27T09:17:13;98167.28;;;7.27;69.98
82858;BME280;72620;47.774;9.620;2024-01-27T09:19:40;98174.19;;;7.41;69.65
82858;BME280;72620;47.774;9.620;2024-01-27T09:22:08;98177.16;;;7.33;68.60
82858;BME280;72620;47.774;9.620;2024-01-27T09:24:35;98178.69;;;6.90;70.75
82858;BME280;72620;47.774;9.620;2024-01-27T09:27:02;98185.81;;;6.35;72.60
82858;BME280;72620;47.774;9.620;2024-01-27T09:29:29;98174.56;;;6.39;72.02
82858;BME280;72620;47.774;9.620;2024-01-27T09:31:56;98165.09;;;6.90;70.71
82858;BME280;72620;47.774;9.620;2024-01-27T09:34:23;98171.91;;;7.05;71.34
82858;BME280;72620;47.774;9.620;2024-01-27T09:36:51;98176.94;;;6.91;71.74
82858;BME280;72620;47.774;9.620;2024-01-27T09:39:18;98183.59;;;7.70;69.06
82858;BME280;72620;47.774;9.620;2024-01-27T09:41:48;98184.47;;;8.85;65.85
82858;BME280;72620;47.774;9.620;2024-01-27T09:44:18;98175.50;;;9.72;62.20
82858;BME280;72620;47.774;9.620;2024-01-27T09:46:46;98182.28;;;10.37;60.75
82858;BME280;72620;47.774;9.620;2024-01-27T09:49:14;98166.63;;;10.78;57.95
82858;BME280;72620;47.774;9.620;2024-01-27T09:51:42;98182.53;;;11.32;56.82
82858;BME280;72620;47.774;9.620;2024-01-27T09:54:10;98179.56;;;11.49;55.65
82858;BME280;72620;47.774;9.620;2024-01-27T09:56:37;98187.94;;;11.87;55.14
82858;BME280;72620;47.774;9.620;2024-01-27T09:59:05;98186.34;;;12.19;54.68
82858;BME280;72620;47.774;9.620;2024-01-27T10:01:33;98177.38;;;12.36;52.14
82858;BME280;72620;47.774;9.620;2024-01-27T10:04:03;98180.56;;;12.62;52.67
82858;BME280;72620;47.774;9.620;2024-01-27T10:06:31;98174.44;;;12.85;50.63
82858;BME280;72620;47.774;9.620;2024-01-27T10:08:58;98166.50;;;12.88;53.13
82858;BME280;72620;47.774;9.620;2024-01-27T10:11:26;98163.69;;;13.02;51.09
82858;BME280;72620;47.774;9.620;2024-01-27T10:13:57;98163.34;;;12.84;51.31
82858;BME280;72620;47.774;9.620;2024-01-27T10:16:26;98166.63;;;12.64;52.86
82858;BME280;72620;47.774;9.620;2024-01-27T10:19:02;98167.56;;;12.41;53.45
82858;BME280;72620;47.774;9.620;2024-01-27T10:21:30;98167.50;;;12.08;56.99
82858;BME280;72620;47.774;9.620;2024-01-27T10:23:57;98161.59;;;11.84;55.22
82858;BME280;72620;47.774;9.620;2024-01-27T10:26:30;98163.97;;;11.39;56.21
82858;BME280;72620;47.774;9.620;2024-01-27T10:28:59;98156.69;;;10.61;60.66
82858;BME280;72620;47.774;9.620;2024-01-27T10:31:27;98165.19;;;9.98;63.86
82858;BME280;72620;47.774;9.620;2024-01-27T10:33:56;98174.47;;;9.35;64.10
82858;BME280;72620;47.774;9.620;2024-01-27T10:36:25;98169.00;;;8.86;66.41
82858;BME280;72620;47.774;9.620;2024-01-27T10:38:55;98173.34;;;8.29;69.91
82858;BME280;72620;47.774;9.620;2024-01-27T10:41:24;98161.22;;;8.03;69.77
82858;BME280;72620;47.774;9.620;2024-01-27T10:43:54;98168.13;;;7.87;72.78
82858;BME280;72620;47.774;9.620;2024-01-27T10:46:27;98161.06;;;7.76;71.49
82858;BME280;72620;47.774;9.620;2024-01-27T10:48:59;98161.81;;;7.78;74.76
82858;BME280;72620;47.774;9.620;2024-01-27T10:51:31;98157.69;;;7.76;74.51
82858;BME280;72620;47.774;9.620;2024-01-27T10:54:03;98151.31;;;7.83;73.61
82858;BME280;72620;47.774;9.620;2024-01-27T10:56:35;98153.81;;;7.84;73.54
82858;BME280;72620;47.774;9.620;2024-01-27T10:59:09;98147.50;;;7.90;73.36
82858;BME280;72620;47.774;9.620;2024-01-27T11:01:37;98143.13;;;7.92;72.04
82858;BME280;72620;47.774;9.620;2024-01-27T11:04:10;98141.03;;;7.98;72.33
82858;BME280;72620;47.774;9.620;2024-01-27T11:06:40;98151.72;;;8.05;76.35
82858;BME280;72620;47.774;9.620;2024-01-27T11:09:11;98141.41;;;8.07;72.17
82858;BME280;72620;47.774;9.620;2024-01-27T11:11:41;98138.66;;;8.10;74.35
82858;BME280;72620;47.774;9.620;2024-01-27T11:14:11;98130.56;;;8.17;72.73
82858;BME280;72620;47.774;9.620;2024-01-27T11:16:39;98120.88;;;8.22;74.03
82858;BME280;72620;47.774;9.620;2024-01-27T11:19:12;98125.88;;;8.24;71.64
82858;BME280;72620;47.774;9.620;2024-01-27T11:21:39;98119.88;;;8.25;70.54
82858;BME280;72620;47.774;9.620;2024-01-27T11:24:16;98109.91;;;8.34;74.18
82858;BME280;72620;47.774;9.620;2024-01-27T11:26:44;98116.59;;;8.37;67.38
82858;BME280;72620;47.774;9.620;2024-01-27T11:29:12;98115.13;;;8.33;70.71
82858;BME280;72620;47.774;9.620;2024-01-27T11:31:48;98105.25;;;8.41;70.26
82858;BME280;72620;47.774;9.620;2024-01-27T11:34:17;98102.53;;;8.44;70.75
82858;BME280;72620;47.774;9.620;2024-01-27T11:36:47;98097.22;;;8.47;68.05
82858;BME280;72620;47.774;9.620;2024-01-27T11:39:29;98096.66;;;8.56;67.92
82858;BME280;72620;47.774;9.620;2024-01-27T11:42:07;98090.25;;;8.63;67.42
82858;BME280;72620;47.774;9.620;2024-01-27T11:44:35;98087.84;;;8.74;68.99
82858;BME280;72620;47.774;9.620;2024-01-27T11:47:05;98097.16;;;8.75;67.78
82858;BME280;72620;47.774;9.620;2024-01-27T11:49:42;98090.47;;;8.87;68.05
82858;BME280;72620;47.774;9.620;2024-01-27T11:52:11;98078.38;;;8.89;67.28
82858;BME280;72620;47.774;9.620;2024-01-27T11:54:38;98075.88;;;9.01;67.71
82858;BME280;72620;47.774;9.620;2024-01-27T11:57:06;98075.81;;;9.15;68.14
82858;BME280;72620;47.774;9.620;2024-01-27T11:59:34;98068.66;;;9.20;68.35
82858;BME280;72620;47.774;9.620;2024-01-27T12:02:02;98059.84;;;9.24;65.88
82858;BME280;72620;47.774;9.620;2024-01-27T12:04:30;98062.31;;;9.26;67.08
82858;BME280;72620;47.774;9.620;2024-01-27T12:06:57;98061.09;;;9.19;67.31
82858;BME280;72620;47.774;9.620;2024-01-27T12:09:24;98068.19;;;9.28;64.96
82858;BME280;72620;47.774;9.620;2024-01-27T12:11:51;98069.38;;;9.22;64.12
82858;BME280;72620;47.774;9.620;2024-01-27T12:14:19;98070.22;;;9.23;64.94
82858;BME280;72620;47.774;9.620;2024-01-27T12:16:46;98074.22;;;9.27;64.57
82858;BME280;72620;47.774;9.620;2024-01-27T12:19:14;98072.66;;;9.24;64.96
82858;BME280;72620;47.774;9.620;2024-01-27T12:21:48;98068.91;;;9.30;64.07
82858;BME280;72620;47.774;9.620;2024-01-27T12:24:16;98062.00;;;9.30;64.29
82858;BME280;72620;47.774;9.620;2024-01-27T12:26:48;98056.28;;;9.27;63.90
82858;BME280;72620;47.774;9.620;2024-01-27T12:29:15;98049.59;;;9.24;64.63
82858;BME280;72620;47.774;9.620;2024-01-27T12:31:43;98045.31;;;9.25;64.27
82858;BME280;72620;47.774;9.620;2024-01-27T12:34:10;98051.47;;;9.35;64.75
82858;BME280;72620;47.774;9.620;2024-01-27T12:36:42;98045.97;;;9.41;64.24
82858;BME280;72620;47.774;9.620;2024-01-27T12:39:10;98040.53;;;9.45;64.13
82858;BME280;72620;47.774;9.620;2024-01-27T12:41:37;98040.84;;;9.41;64.77
82858;BME280;72620;47.774;9.620;2024-01-27T12:44:06;98038.47;;;9.38;65.27
82858;BME280;72620;47.774;9.620;2024-01-27T12:46:34;98034.16;;;9.38;64.95
82858;BME280;72620;47.774;9.620;2024-01-27T12:49:02;98028.09;;;9.39;65.53
82858;BME280;72620;47.774;9.620;2024-01-27T12:51:30;98022.91;;;9.41;65.23
82858;BME280;72620;47.774;9.620;2024-01-27T12:53:57;98023.50;;;9.44;64.60
82858;BME280;72620;47.774;9.620;2024-01-27T12:56:24;98018.19;;;9.47;64.40
82858;BME280;72620;47.774;9.620;2024-01-27T12:58:52;98026.47;;;9.51;65.14
82858;BME280;72620;47.774;9.620;2024-01-27T13:01:19;98019.41;;;9.55;64.27
82858;BME280;72620;47.774;9.620;2024-01-27T13:03:46;98022.91;;;9.54;63.89
82858;BME280;72620;47.774;9.620;2024-01-27T13:06:13;98025.34;;;9.55;64.81
82858;BME280;72620;47.774;9.620;2024-01-27T13:08:41;98023.19;;;9.49;63.70
82858;BME280;72620;47.774;9.620;2024-01-27T13:11:09;98017.34;;;9.47;63.44
82858;BME280;72620;47.774;9.620;2024-01-27T13:13:36;98019.81;;;9.48;64.36